createdAt,value
2019-05-09T00:00:49.527Z,6.33
2019-05-09T00:03:21.143Z,6.27
2019-05-09T00:05:54.200Z,6.90
2019-05-09T00:08:25.942Z,6.23
2019-05-09T00:10:57.394Z,6.90
2019-05-09T00:13:30.823Z,6.20
2019-05-09T00:16:03.636Z,6.30
2019-05-09T00:18:35.421Z,6.60
2019-05-09T00:21:13.438Z,6.40
2019-05-09T00:23:45.322Z,6.20
2019-05-09T00:26:16.935Z,6.10
2019-05-09T00:28:53.379Z,6.70
2019-05-09T00:31:50.736Z,5.70
2019-05-09T00:34:44.167Z,6.03
2019-05-09T00:37:15.584Z,5.53
2019-05-09T00:39:48.202Z,5.97
2019-05-09T00:42:19.741Z,6.87
2019-05-09T00:44:53.328Z,6.73
2019-05-09T00:47:27.587Z,7.07
2019-05-09T00:49:59.187Z,6.40
2019-05-09T00:52:30.646Z,5.77
2019-05-09T00:55:03.913Z,7.43
2019-05-09T00:57:35.220Z,6.50
2019-05-09T01:00:14.503Z,6.43
2019-05-09T01:02:45.816Z,6.73
2019-05-09T01:05:17.322Z,7.03
2019-05-09T01:07:48.806Z,6.73
2019-05-09T01:10:23.535Z,6.83
2019-05-09T01:12:55.106Z,7.23
2019-05-09T01:15:26.894Z,6.27
2019-05-09T01:17:58.639Z,7.00
2019-05-09T01:20:30.139Z,5.97
2019-05-09T01:23:03.485Z,6.60
2019-05-09T01:25:34.690Z,7.00
2019-05-09T01:28:06.230Z,7.60
2019-05-09T01:30:37.711Z,6.63
2019-05-09T01:33:25.309Z,7.30
2019-05-09T01:35:56.810Z,7.03
2019-05-09T01:38:28.359Z,7.20
2019-05-09T01:41:00.491Z,6.50
2019-05-09T01:43:33.772Z,7.37
2019-05-09T01:46:17.238Z,6.93
2019-05-09T01:48:48.683Z,8.10
2019-05-09T01:51:20.294Z,7.77
2019-05-09T01:53:53.890Z,8.20
2019-05-09T01:56:25.425Z,7.30
2019-05-09T01:58:56.968Z,8.03
2019-05-09T02:01:28.441Z,6.73
2019-05-09T02:04:00.086Z,7.03
2019-05-09T02:06:33.285Z,7.60
2019-05-09T02:09:07.172Z,8.27
2019-05-09T02:11:42.693Z,7.03
2019-05-09T02:14:14.250Z,7.63
2019-05-09T02:16:56.154Z,6.83
2019-05-09T02:19:33.168Z,7.70
2019-05-09T02:22:23.785Z,7.10
2019-05-09T02:24:55.232Z,7.23
2019-05-09T02:27:26.723Z,7.13
2019-05-09T02:29:58.177Z,7.93
2019-05-09T02:32:29.673Z,6.80
2019-05-09T02:35:04.651Z,7.97
2019-05-09T02:37:34.334Z,8.43
2019-05-09T02:40:09.667Z,7.90
2019-05-09T02:42:41.222Z,7.67
2019-05-09T02:45:12.834Z,7.53
2019-05-09T02:47:44.340Z,7.27
2019-05-09T02:50:19.208Z,7.83
2019-05-09T02:52:49.183Z,6.87
2019-05-09T02:55:20.696Z,7.43
2019-05-09T02:57:53.751Z,7.80
2019-05-09T03:00:48.776Z,7.67
2019-05-09T03:03:32.574Z,7.23
2019-05-09T03:06:04.050Z,7.83
2019-05-09T03:08:38.221Z,8.03
2019-05-09T03:11:09.849Z,8.90
2019-05-09T03:13:41.774Z,8.17
2019-05-09T03:16:18.788Z,7.47
2019-05-09T03:18:49.564Z,9.30
2019-05-09T03:21:45.166Z,9.07
2019-05-09T03:24:18.528Z,8.37
2019-05-09T03:26:54.694Z,8.63
2019-05-09T03:29:39.999Z,10.17
2019-05-09T03:32:11.720Z,7.90
2019-05-09T03:34:43.225Z,8.47
2019-05-09T03:37:14.735Z,8.60
2019-05-09T03:39:47.930Z,8.57
2019-05-09T03:42:23.087Z,9.03
2019-05-09T03:44:53.005Z,8.43
2019-05-09T03:47:42.217Z,7.43
2019-05-09T03:50:17.680Z,9.57
2019-05-09T03:52:49.499Z,8.43
2019-05-09T03:55:34.249Z,9.00
2019-05-09T03:58:12.449Z,8.73
2019-05-09T04:00:43.926Z,8.37
2019-05-09T04:03:15.464Z,8.00
2019-05-09T04:05:58.466Z,8.57
2019-05-09T04:08:20.531Z,8.27
2019-05-09T04:10:53.580Z,17.87
2019-05-09T04:13:33.125Z,13.37
2019-05-09T04:16:04.687Z,17.53
2019-05-09T04:18:37.673Z,15.30
2019-05-09T04:21:09.365Z,13.87
2019-05-09T04:23:40.837Z,13.23
2019-05-09T04:26:28.958Z,14.53
2019-05-09T04:29:00.445Z,9.90
2019-05-09T04:31:31.997Z,10.17
2019-05-09T04:34:03.462Z,9.23
2019-05-09T04:36:40.797Z,10.83
2019-05-09T04:39:21.431Z,9.53
2019-05-09T04:41:48.740Z,9.37
2019-05-09T04:44:28.533Z,9.73
2019-05-09T04:47:03.546Z,8.30
2019-05-09T04:49:39.194Z,8.83
2019-05-09T04:52:07.676Z,9.87
2019-05-09T04:54:39.486Z,10.47
2019-05-09T04:57:11.071Z,8.97
2019-05-09T04:59:44.794Z,10.13
2019-05-09T05:02:50.567Z,11.60
2019-05-09T05:05:22.157Z,10.57
2019-05-09T05:07:53.790Z,9.43
2019-05-09T05:10:27.284Z,9.97
2019-05-09T05:12:58.531Z,9.17
2019-05-09T05:15:30.075Z,8.77
2019-05-09T05:18:01.707Z,8.40
2019-05-09T05:20:33.899Z,8.97
2019-05-09T05:23:12.396Z,9.37
2019-05-09T05:25:44.013Z,9.33
2019-05-09T05:28:17.566Z,9.67
2019-05-09T05:30:49.169Z,8.43
2019-05-09T05:33:32.282Z,9.10
2019-05-09T05:36:07.931Z,10.87
2019-05-09T05:38:39.697Z,9.00
2019-05-09T05:41:11.271Z,8.97
2019-05-09T05:43:44.724Z,9.40
2019-05-09T05:46:31.544Z,9.27
2019-05-09T05:49:03.118Z,8.90
2019-05-09T05:51:49.423Z,9.23
2019-05-09T05:54:22.383Z,9.80
2019-05-09T05:56:54.543Z,9.83
2019-05-09T05:59:28.365Z,10.30
2019-05-09T06:01:59.337Z,12.13
2019-05-09T06:04:30.960Z,9.67
2019-05-09T06:07:03.413Z,10.00
2019-05-09T06:09:35.018Z,9.87
2019-05-09T06:12:08.237Z,9.90
2019-05-09T06:14:39.822Z,9.73
2019-05-09T06:17:11.450Z,9.30
2019-05-09T06:19:42.956Z,9.87
2019-05-09T06:22:14.716Z,9.93
2019-05-09T06:24:47.856Z,9.27
2019-05-09T06:27:19.662Z,9.63
2019-05-09T06:29:51.149Z,9.33
2019-05-09T06:32:22.642Z,11.00
2019-05-09T06:34:54.142Z,9.40
2019-05-09T06:37:27.617Z,10.00
2019-05-09T06:39:58.829Z,10.60
2019-05-09T06:42:30.897Z,9.97
2019-05-09T06:45:24.307Z,9.37
2019-05-09T06:47:58.265Z,10.37
2019-05-09T06:50:30.481Z,9.33
2019-05-09T06:53:02.117Z,10.67
2019-05-09T06:55:33.812Z,11.03
2019-05-09T06:58:38.322Z,10.53
2019-05-09T07:01:21.579Z,13.37
2019-05-09T07:04:05.856Z,11.53
2019-05-09T07:06:58.631Z,9.90
2019-05-09T07:09:44.303Z,9.37
2019-05-09T07:12:17.922Z,9.47
2019-05-09T07:14:49.002Z,9.40
2019-05-09T07:17:20.506Z,9.57
2019-05-09T07:19:52.082Z,9.47
2019-05-09T07:22:47.943Z,10.13
2019-05-09T07:25:43.462Z,9.23
2019-05-09T07:28:15.011Z,9.70
2019-05-09T07:31:11.789Z,9.30
2019-05-09T07:33:53.754Z,9.57
2019-05-09T07:36:27.706Z,9.70
2019-05-09T07:38:58.455Z,8.87
2019-05-09T07:41:30.015Z,9.00
2019-05-09T07:44:01.584Z,11.07
2019-05-09T07:46:34.708Z,9.53
2019-05-09T07:49:09.453Z,9.33
2019-05-09T07:51:41.548Z,10.70
2019-05-09T07:54:21.923Z,10.03
2019-05-09T07:56:48.569Z,11.23
2019-05-09T07:59:20.235Z,12.10
2019-05-09T08:01:51.759Z,10.97
2019-05-09T08:04:25.193Z,9.27
2019-05-09T08:06:57.701Z,12.30
2019-05-09T08:09:29.519Z,9.97
2019-05-09T08:12:01.079Z,10.23
2019-05-09T08:14:32.899Z,9.63
2019-05-09T08:17:05.325Z,10.03
2019-05-09T08:19:38.063Z,10.57
2019-05-09T08:22:09.969Z,10.27
2019-05-09T08:24:41.440Z,10.47
2019-05-09T08:27:12.960Z,10.07
2019-05-09T08:29:44.438Z,10.83
2019-05-09T08:32:19.504Z,10.93
2019-05-09T08:34:51.251Z,11.93
2019-05-09T08:37:22.800Z,12.37
2019-05-09T08:39:54.573Z,12.03
2019-05-09T08:42:26.086Z,11.87
2019-05-09T08:44:57.855Z,12.20
2019-05-09T08:47:29.559Z,12.17
2019-05-09T08:50:17.592Z,12.50
2019-05-09T08:52:50.447Z,11.73
2019-05-09T08:55:21.903Z,10.93
2019-05-09T08:57:53.381Z,11.80
2019-05-09T09:00:24.927Z,10.60
2019-05-09T09:02:57.410Z,11.40
2019-05-09T09:05:29.508Z,11.40
2019-05-09T09:08:01.097Z,11.83
2019-05-09T09:10:32.599Z,12.23
2019-05-09T09:13:04.121Z,12.93
2019-05-09T09:16:02.626Z,11.10
2019-05-09T09:18:08.952Z,12.70
2019-05-09T09:20:40.897Z,11.37
2019-05-09T09:23:12.435Z,12.07
2019-05-09T09:25:43.935Z,11.03
2019-05-09T09:28:15.506Z,12.30
2019-05-09T09:30:48.430Z,12.00
2019-05-09T09:33:20.245Z,11.47
2019-05-09T09:35:51.736Z,12.53
2019-05-09T09:38:23.227Z,11.43
2019-05-09T09:40:57.956Z,12.17
2019-05-09T09:43:28.875Z,12.70
2019-05-09T09:46:10.882Z,13.03
2019-05-09T09:48:33.726Z,12.77
2019-05-09T09:51:08.012Z,11.57
2019-05-09T09:53:39.886Z,13.43
2019-05-09T09:56:11.443Z,13.77
2019-05-09T09:58:44.574Z,13.17
2019-05-09T10:01:25.201Z,13.20
2019-05-09T10:04:23.726Z,15.70
2019-05-09T10:06:52.972Z,12.20
2019-05-09T10:09:23.058Z,11.97
2019-05-09T10:11:57.076Z,12.87
2019-05-09T10:14:31.164Z,16.50
2019-05-09T10:17:12.587Z,14.80
2019-05-09T10:19:49.328Z,12.57
2019-05-09T10:22:25.081Z,12.90
2019-05-09T10:24:58.379Z,11.97
2019-05-09T10:27:28.824Z,13.00
2019-05-09T10:30:00.500Z,12.03
2019-05-09T10:32:32.192Z,14.43
2019-05-09T10:35:03.778Z,12.73
2019-05-09T10:37:35.258Z,12.67
2019-05-09T10:40:07.683Z,12.10
2019-05-09T10:42:48.325Z,12.07
2019-05-09T10:45:40.829Z,14.17
2019-05-09T10:48:10.055Z,12.23
2019-05-09T10:50:44.673Z,12.53
2019-05-09T10:53:14.587Z,14.87
2019-05-09T10:55:48.110Z,13.43
2019-05-09T10:58:20.926Z,12.37
2019-05-09T11:00:52.342Z,12.93
2019-05-09T11:03:23.799Z,10.40
2019-05-09T11:05:55.270Z,11.97
2019-05-09T11:08:28.603Z,12.70
2019-05-09T11:11:00.560Z,10.57
2019-05-09T11:13:32.087Z,10.33
2019-05-09T11:16:03.691Z,12.10
2019-05-09T11:18:35.639Z,11.40
2019-05-09T11:21:08.426Z,11.50
2019-05-09T11:23:40.199Z,11.13
2019-05-09T11:26:11.716Z,11.47
2019-05-09T11:28:43.174Z,10.83
2019-05-09T11:31:14.859Z,10.67
2019-05-09T11:33:48.357Z,9.53
2019-05-09T11:36:21.209Z,10.73
2019-05-09T11:38:52.996Z,11.63
2019-05-09T11:41:24.547Z,10.37
2019-05-09T11:43:59.176Z,11.70
2019-05-09T11:46:29.291Z,10.97
2019-05-09T11:49:00.999Z,12.20
2019-05-09T11:51:32.459Z,10.17
2019-05-09T11:54:04.013Z,9.13
2019-05-09T11:56:35.558Z,9.00
2019-05-09T11:59:07.851Z,7.80
2019-05-09T12:01:40.021Z,8.53
2019-05-09T12:04:11.534Z,8.13
2019-05-09T12:06:43.106Z,8.33
2019-05-09T12:09:15.056Z,7.80
2019-05-09T12:11:48.362Z,8.40
2019-05-09T12:14:19.870Z,9.53
2019-05-09T12:16:51.358Z,9.80
2019-05-09T12:19:22.919Z,7.70
2019-05-09T12:21:54.417Z,9.57
2019-05-09T12:24:25.911Z,7.77
2019-05-09T12:26:57.698Z,8.67
2019-05-09T12:29:30.898Z,9.57
2019-05-09T12:32:02.510Z,12.70
2019-05-09T12:34:34.068Z,11.83
2019-05-09T12:37:05.722Z,11.90
2019-05-09T12:39:37.885Z,13.93
2019-05-09T12:42:09.587Z,12.73
2019-05-09T12:44:41.199Z,10.60
2019-05-09T12:47:12.861Z,10.50
2019-05-09T12:49:44.355Z,10.87
2019-05-09T12:52:18.363Z,10.60
2019-05-09T12:54:49.166Z,8.10
2019-05-09T12:57:21.953Z,9.13
2019-05-09T12:59:53.936Z,7.87
2019-05-09T13:02:27.886Z,8.30
2019-05-09T13:04:59.946Z,8.20
2019-05-09T13:07:31.419Z,7.70
2019-05-09T13:10:04.781Z,8.77
2019-05-09T13:12:38.780Z,9.10
2019-05-09T13:15:09.580Z,9.53
2019-05-09T13:17:44.408Z,8.30
2019-05-09T13:20:18.057Z,7.20
2019-05-09T13:22:49.817Z,8.43
2019-05-09T13:25:21.327Z,8.13
2019-05-09T13:27:53.238Z,7.57
2019-05-09T13:30:24.788Z,7.53
2019-05-09T13:32:56.980Z,6.90
2019-05-09T13:35:28.590Z,6.80
2019-05-09T13:38:00.195Z,7.33
2019-05-09T13:40:31.719Z,6.73
2019-05-09T13:43:03.219Z,9.10
2019-05-09T13:45:35.586Z,7.53
2019-05-09T13:48:23.973Z,8.10
2019-05-09T13:50:40.405Z,7.63
2019-05-09T13:53:12.037Z,7.87
2019-05-09T13:55:43.753Z,9.03
2019-05-09T13:58:15.391Z,8.23
2019-05-09T14:00:56.787Z,8.70
2019-05-09T14:03:20.123Z,8.03
2019-05-09T14:05:53.041Z,8.83
2019-05-09T14:08:28.541Z,8.20
2019-05-09T14:10:59.406Z,8.87
2019-05-09T14:13:30.871Z,9.23
2019-05-09T14:16:15.567Z,9.53
2019-05-09T14:18:38.402Z,11.07
2019-05-09T14:21:09.071Z,10.10
2019-05-09T14:23:51.435Z,10.87
2019-05-09T14:26:14.271Z,10.33
2019-05-09T14:28:48.865Z,9.33
2019-05-09T14:31:19.729Z,9.03
2019-05-09T14:33:51.425Z,10.20
2019-05-09T14:36:22.988Z,9.43
2019-05-09T14:38:54.506Z,8.23
2019-05-09T14:41:27.772Z,7.67
2019-05-09T14:43:59.857Z,7.90
2019-05-09T14:46:31.682Z,7.80
2019-05-09T14:49:03.211Z,6.63
2019-05-09T14:51:34.837Z,7.93
2019-05-09T14:54:08.271Z,7.17
2019-05-09T14:56:42.056Z,7.10
2019-05-09T14:59:12.768Z,8.53
2019-05-09T15:01:44.340Z,8.53
2019-05-09T15:04:18.886Z,9.23
2019-05-09T15:06:50.807Z,8.27
2019-05-09T15:09:22.401Z,9.40
2019-05-09T15:11:53.914Z,9.23
2019-05-09T15:14:25.397Z,10.20
2019-05-09T15:16:57.505Z,10.60
2019-05-09T15:19:29.161Z,10.03
2019-05-09T15:22:01.067Z,9.53
2019-05-09T15:24:32.990Z,9.90
2019-05-09T15:27:04.611Z,8.10
2019-05-09T15:29:38.900Z,9.07
2019-05-09T15:32:12.155Z,14.37
2019-05-09T15:34:42.865Z,20.57
2019-05-09T15:37:14.503Z,19.60
2019-05-09T15:39:48.284Z,18.10
2019-05-09T15:42:19.279Z,14.27
2019-05-09T15:44:50.854Z,12.40
2019-05-09T15:47:27.745Z,10.57
2019-05-09T15:50:15.646Z,10.10
2019-05-09T15:52:34.490Z,10.40
2019-05-09T15:55:09.560Z,10.17
2019-05-09T15:57:40.083Z,10.10
2019-05-09T16:00:14.672Z,9.97
2019-05-09T16:02:48.518Z,10.93
2019-05-09T16:05:19.613Z,10.30
2019-05-09T16:07:51.182Z,11.03
2019-05-09T16:10:22.736Z,9.87
2019-05-09T16:12:54.361Z,10.30
2019-05-09T16:15:28.452Z,11.30
2019-05-09T16:17:59.305Z,11.67
2019-05-09T16:20:37.410Z,12.73
2019-05-09T16:23:04.137Z,10.13
2019-05-09T16:25:35.731Z,13.60
2019-05-09T16:28:08.040Z,10.87
2019-05-09T16:30:40.108Z,12.23
2019-05-09T16:33:11.762Z,11.07
2019-05-09T16:35:43.424Z,15.50
2019-05-09T16:38:15.031Z,15.23
2019-05-09T16:40:47.930Z,16.00
2019-05-09T16:43:19.994Z,14.30
2019-05-09T16:45:51.640Z,16.70
2019-05-09T16:48:23.559Z,14.93
2019-05-09T16:51:03.293Z,12.57
2019-05-09T16:53:28.408Z,11.10
2019-05-09T16:56:11.422Z,10.20
2019-05-09T16:58:43.029Z,11.70
2019-05-09T17:01:24.746Z,11.57
2019-05-09T17:03:57.554Z,12.13
2019-05-09T17:06:29.425Z,11.27
2019-05-09T17:09:01.123Z,11.47
2019-05-09T17:11:34.179Z,17.50
2019-05-09T17:14:07.964Z,13.87
2019-05-09T17:16:39.005Z,16.03
2019-05-09T17:19:10.548Z,13.73
2019-05-09T17:22:13.218Z,13.07
2019-05-09T17:24:48.393Z,13.57
2019-05-09T17:27:19.706Z,13.20
2019-05-09T17:29:52.496Z,14.37
2019-05-09T17:32:24.065Z,14.07
2019-05-09T17:34:58.147Z,13.17
2019-05-09T17:37:28.805Z,13.63
2019-05-09T17:40:00.287Z,18.60
2019-05-09T17:42:31.783Z,20.50
2019-05-09T17:45:03.636Z,17.93
2019-05-09T17:47:37.599Z,15.30
2019-05-09T17:50:08.599Z,15.87
2019-05-09T17:52:40.431Z,14.27
2019-05-09T17:55:12.317Z,34.17
2019-05-09T17:57:43.841Z,18.90
2019-05-09T18:00:19.277Z,22.73
2019-05-09T18:02:48.875Z,19.27
2019-05-09T18:05:20.484Z,19.93
2019-05-09T18:07:52.419Z,18.77
2019-05-09T18:10:25.713Z,17.03
2019-05-09T18:12:58.802Z,14.13
2019-05-09T18:15:30.292Z,15.60
2019-05-09T18:18:01.837Z,14.37
2019-05-09T18:20:33.370Z,14.17
2019-05-09T18:23:05.088Z,15.30
2019-05-09T18:25:37.796Z,15.57
2019-05-09T18:28:09.793Z,13.77
2019-05-09T18:30:41.341Z,16.00
2019-05-09T18:33:19.017Z,14.43
2019-05-09T18:35:50.573Z,14.57
2019-05-09T18:38:30.050Z,15.80
2019-05-09T18:41:01.596Z,15.80
2019-05-09T18:43:33.213Z,16.20
2019-05-09T18:46:04.941Z,15.83
2019-05-09T18:48:38.263Z,15.40
2019-05-09T18:51:09.923Z,16.57
2019-05-09T18:53:41.421Z,14.50
2019-05-09T18:56:12.892Z,16.17
2019-05-09T18:58:44.417Z,16.50
2019-05-09T19:01:15.945Z,15.43
2019-05-09T19:03:47.524Z,15.30
2019-05-09T19:06:19.057Z,16.57
2019-05-09T19:08:50.658Z,17.27
2019-05-09T19:11:22.190Z,15.97
2019-05-09T19:13:53.992Z,16.30
2019-05-09T19:16:34.118Z,16.13
2019-05-09T19:19:21.516Z,16.70
2019-05-09T19:21:56.356Z,16.10
2019-05-09T19:24:27.922Z,15.77
2019-05-09T19:26:59.436Z,16.87
2019-05-09T19:29:30.928Z,16.80
2019-05-09T19:32:02.532Z,16.07
2019-05-09T19:34:35.385Z,16.70
2019-05-09T19:37:07.098Z,16.53
2019-05-09T19:39:38.649Z,18.63
2019-05-09T19:42:10.230Z,24.03
2019-05-09T19:44:41.823Z,21.87
2019-05-09T19:47:13.356Z,21.27
2019-05-09T19:49:44.922Z,19.33
2019-05-09T19:52:16.501Z,20.37
2019-05-09T19:54:47.968Z,20.57
2019-05-09T19:57:19.471Z,19.03
2019-05-09T19:59:51.003Z,21.17
2019-05-09T20:02:23.615Z,20.03
2019-05-09T20:04:55.748Z,20.40
2019-05-09T20:07:27.283Z,21.97
2019-05-09T20:10:05.665Z,21.10
2019-05-09T20:12:53.462Z,19.93
2019-05-09T20:15:25.660Z,22.13
2019-05-09T20:17:57.233Z,25.10
2019-05-09T20:20:28.706Z,22.70
2019-05-09T20:23:00.261Z,18.80
2019-05-09T20:25:31.702Z,19.27
2019-05-09T20:28:03.264Z,18.70
2019-05-09T20:30:34.746Z,20.50
2019-05-09T20:33:06.342Z,20.33
2019-05-09T20:35:37.846Z,20.10
2019-05-09T20:38:09.606Z,22.17
2019-05-09T20:40:42.784Z,19.67
2019-05-09T20:43:14.564Z,20.77
2019-05-09T20:45:46.342Z,22.07
2019-05-09T20:48:18.024Z,21.27
2019-05-09T20:50:49.796Z,20.47
2019-05-09T20:53:21.534Z,19.83
2019-05-09T20:55:53.216Z,19.40
2019-05-09T20:58:25.175Z,21.23
2019-05-09T21:00:57.004Z,20.50
2019-05-09T21:03:29.054Z,18.93
2019-05-09T21:06:00.742Z,21.47
2019-05-09T21:08:32.424Z,19.03
2019-05-09T21:11:04.180Z,20.03
2019-05-09T21:13:48.011Z,17.93
2019-05-09T21:16:09.304Z,18.93
2019-05-09T21:18:40.992Z,20.87
2019-05-09T21:21:12.823Z,21.10
2019-05-09T21:23:44.919Z,21.20
2019-05-09T21:26:16.585Z,21.40
2019-05-09T21:28:48.258Z,21.27
2019-05-09T21:31:19.961Z,22.13
2019-05-09T21:33:51.624Z,20.90
2019-05-09T21:36:23.415Z,21.10
2019-05-09T21:38:54.936Z,21.13
2019-05-09T21:41:26.419Z,21.43
2019-05-09T21:43:57.887Z,23.30
2019-05-09T21:46:29.541Z,21.53
2019-05-09T21:49:01.027Z,20.53
2019-05-09T21:51:33.692Z,20.90
2019-05-09T21:54:05.179Z,21.73
2019-05-09T21:56:36.693Z,21.87
2019-05-09T21:59:09.537Z,21.00
2019-05-09T22:01:41.523Z,23.17
2019-05-09T22:04:13.043Z,23.50
2019-05-09T22:06:44.525Z,24.33
2019-05-09T22:09:16.054Z,24.13
2019-05-09T22:11:47.599Z,22.40
2019-05-09T22:14:19.101Z,20.90
2019-05-09T22:16:50.661Z,21.07
2019-05-09T22:19:22.235Z,23.07
2019-05-09T22:21:53.711Z,21.73
2019-05-09T22:24:25.349Z,21.47
2019-05-09T22:26:56.911Z,20.53
2019-05-09T22:29:28.385Z,21.40
2019-05-09T22:31:59.847Z,23.27
2019-05-09T22:34:31.316Z,22.27
2019-05-09T22:37:04.057Z,25.53
2019-05-09T22:39:35.633Z,24.67
2019-05-09T22:42:07.091Z,21.57
2019-05-09T22:44:38.592Z,24.07
2019-05-09T22:47:10.044Z,21.27
2019-05-09T22:49:41.549Z,21.80
2019-05-09T22:52:13.051Z,19.87
2019-05-09T22:54:45.878Z,20.70
2019-05-09T22:57:18.540Z,22.60
2019-05-09T22:59:50.028Z,20.70
2019-05-09T23:02:21.719Z,22.03
2019-05-09T23:04:53.235Z,19.67
2019-05-09T23:07:25.039Z,18.33
2019-05-09T23:10:02.760Z,20.00
2019-05-09T23:12:34.301Z,24.63
2019-05-09T23:15:06.999Z,25.47
2019-05-09T23:17:38.996Z,25.60
2019-05-09T23:20:19.594Z,22.90
2019-05-09T23:22:51.079Z,25.20
2019-05-09T23:25:22.555Z,27.00
2019-05-09T23:27:54.033Z,24.77
2019-05-09T23:30:25.496Z,26.10
2019-05-09T23:32:57.092Z,23.03
2019-05-09T23:35:28.560Z,22.50
2019-05-09T23:38:00.681Z,23.33
2019-05-09T23:40:32.181Z,21.50
2019-05-09T23:43:03.724Z,21.03
2019-05-09T23:45:35.166Z,18.70
2019-05-09T23:48:06.678Z,19.03
2019-05-09T23:50:38.126Z,20.03
2019-05-09T23:53:09.686Z,19.93
2019-05-09T23:55:58.782Z,20.27
2019-05-09T23:58:48.016Z,19.07
